createdAt,value
2022-11-14T00:00:58.748Z,23.53
2022-11-14T00:03:25.272Z,19.98
2022-11-14T00:05:51.830Z,25.67
2022-11-14T00:08:21.307Z,22.15
2022-11-14T00:10:49.476Z,25.50
2022-11-14T00:13:17.390Z,27.45
2022-11-14T00:15:44.869Z,22.23
2022-11-14T00:18:11.575Z,23.55
2022-11-14T00:20:38.131Z,22.73
2022-11-14T00:23:04.666Z,20.90
2022-11-14T00:25:32.507Z,20.45
2022-11-14T00:27:59.664Z,23.25
2022-11-14T00:30:27.486Z,23.63
2022-11-14T00:32:54.013Z,18.55
2022-11-14T00:35:20.534Z,25.83
2022-11-14T00:37:47.087Z,23.75
2022-11-14T00:40:14.802Z,23.02
2022-11-14T00:42:42.332Z,21.90
2022-11-14T00:45:09.424Z,21.17
2022-11-14T00:47:35.954Z,23.13
2022-11-14T00:50:02.698Z,19.80
2022-11-14T00:52:29.207Z,22.95
2022-11-14T00:54:55.695Z,23.95
2022-11-14T00:57:22.196Z,19.33
2022-11-14T00:59:48.875Z,22.65
2022-11-14T01:02:15.376Z,19.27
2022-11-14T01:04:41.889Z,20.15
2022-11-14T01:07:08.440Z,21.15
2022-11-14T01:09:34.999Z,22.13
2022-11-14T01:12:01.680Z,25.05
2022-11-14T01:14:28.214Z,19.77
2022-11-14T01:16:54.747Z,20.20
2022-11-14T01:19:21.274Z,20.67
2022-11-14T01:21:47.844Z,21.80
2022-11-14T01:24:14.397Z,19.63
2022-11-14T01:26:40.920Z,17.92
2022-11-14T01:29:07.487Z,17.77
2022-11-14T01:31:34.077Z,17.67
2022-11-14T01:34:00.592Z,19.17
2022-11-14T01:36:27.203Z,16.48
2022-11-14T01:38:54.318Z,19.92
2022-11-14T01:41:21.623Z,17.63
2022-11-14T01:43:48.937Z,17.50
2022-11-14T01:46:30.489Z,21.33
2022-11-14T01:49:15.942Z,20.63
2022-11-14T01:51:49.310Z,20.50
2022-11-14T01:54:22.901Z,18.92
2022-11-14T01:56:59.201Z,18.67
2022-11-14T01:59:35.034Z,20.80
2022-11-14T02:02:07.676Z,19.42
2022-11-14T02:04:39.688Z,18.90
2022-11-14T02:07:07.709Z,17.52
2022-11-14T02:09:40.415Z,18.33
2022-11-14T02:12:09.964Z,16.75
2022-11-14T02:14:37.858Z,18.25
2022-11-14T02:17:28.425Z,17.20
2022-11-14T02:19:54.820Z,17.23
2022-11-14T02:22:21.345Z,16.35
2022-11-14T02:24:47.837Z,18.23
2022-11-14T02:27:15.338Z,16.90
2022-11-14T02:29:42.452Z,18.00
2022-11-14T02:32:10.900Z,17.48
2022-11-14T02:34:38.585Z,17.15
2022-11-14T02:37:05.725Z,18.17
2022-11-14T02:39:32.266Z,20.88
2022-11-14T02:41:59.082Z,21.65
2022-11-14T02:44:25.919Z,18.25
2022-11-14T02:46:52.441Z,19.05
2022-11-14T02:49:18.924Z,17.40
2022-11-14T02:51:45.479Z,18.35
2022-11-14T02:54:11.988Z,18.30
2022-11-14T02:56:38.505Z,17.65
2022-11-14T02:59:05.023Z,16.52
2022-11-14T03:01:31.590Z,19.65
2022-11-14T03:03:58.321Z,18.90
2022-11-14T03:06:24.954Z,18.25
2022-11-14T03:08:51.747Z,16.85
2022-11-14T03:11:18.487Z,19.70
2022-11-14T03:13:45.227Z,16.38
2022-11-14T03:16:13.377Z,18.50
2022-11-14T03:18:40.390Z,19.42
2022-11-14T03:21:13.936Z,19.45
2022-11-14T03:23:40.767Z,17.17
2022-11-14T03:26:09.632Z,17.20
2022-11-14T03:28:36.656Z,16.05
2022-11-14T03:31:03.500Z,15.60
2022-11-14T03:33:30.011Z,15.98
2022-11-14T03:35:56.683Z,18.10
2022-11-14T03:38:23.765Z,15.82
2022-11-14T03:40:51.414Z,16.10
2022-11-14T03:43:19.505Z,19.90
2022-11-14T03:45:46.915Z,16.33
2022-11-14T03:48:13.960Z,16.05
2022-11-14T03:50:42.052Z,15.20
2022-11-14T03:53:08.589Z,14.30
2022-11-14T03:55:35.322Z,15.60
2022-11-14T03:58:01.834Z,18.45
2022-11-14T04:00:28.956Z,13.88
2022-11-14T04:02:58.213Z,17.90
2022-11-14T04:05:24.739Z,15.35
2022-11-14T04:07:51.868Z,14.23
2022-11-14T04:10:18.622Z,14.98
2022-11-14T04:12:49.893Z,16.80
2022-11-14T04:15:17.368Z,19.95
2022-11-14T04:17:44.326Z,14.55
2022-11-14T04:20:12.135Z,17.42
2022-11-14T04:22:39.133Z,16.70
2022-11-14T04:25:06.806Z,16.58
2022-11-14T04:27:33.308Z,13.18
2022-11-14T04:30:00.424Z,15.55
2022-11-14T04:32:26.918Z,16.13
2022-11-14T04:34:53.484Z,17.42
2022-11-14T04:37:20.015Z,13.70
2022-11-14T04:39:46.588Z,16.65
2022-11-14T04:42:13.171Z,15.32
2022-11-14T04:44:39.788Z,15.75
2022-11-14T04:47:06.405Z,15.45
2022-11-14T04:49:32.988Z,19.00
2022-11-14T04:51:59.621Z,15.57
2022-11-14T04:54:26.249Z,17.38
2022-11-14T04:56:52.791Z,16.98
2022-11-14T04:59:21.074Z,16.92
2022-11-14T05:01:48.080Z,16.05
2022-11-14T05:04:14.823Z,16.70
2022-11-14T05:06:41.489Z,15.18
2022-11-14T05:09:08.115Z,15.82
2022-11-14T05:11:34.660Z,19.85
2022-11-14T05:14:01.350Z,18.23
2022-11-14T05:16:27.957Z,15.68
2022-11-14T05:18:55.121Z,17.92
2022-11-14T05:21:21.802Z,14.30
2022-11-14T05:23:48.411Z,16.33
2022-11-14T05:26:17.822Z,15.80
2022-11-14T05:28:44.528Z,19.42
2022-11-14T05:31:14.973Z,16.08
2022-11-14T05:33:41.540Z,15.65
2022-11-14T05:36:25.883Z,17.88
2022-11-14T05:38:52.426Z,18.55
2022-11-14T05:41:20.313Z,19.85
2022-11-14T05:43:49.534Z,16.10
2022-11-14T05:46:17.150Z,16.83
2022-11-14T05:48:43.770Z,18.35
2022-11-14T05:51:13.148Z,16.83
2022-11-14T05:53:40.396Z,15.98
2022-11-14T05:56:10.490Z,14.77
2022-11-14T05:58:37.204Z,18.77
2022-11-14T06:01:15.455Z,16.70
2022-11-14T06:03:44.028Z,18.08
2022-11-14T06:06:14.368Z,14.82
2022-11-14T06:08:41.692Z,16.35
2022-11-14T06:11:14.236Z,18.98
2022-11-14T06:13:41.081Z,15.82
2022-11-14T06:16:11.204Z,17.70
2022-11-14T06:18:38.297Z,20.25
2022-11-14T06:21:07.680Z,22.80
2022-11-14T06:23:34.587Z,22.23
2022-11-14T06:26:02.707Z,23.08
2022-11-14T06:28:29.747Z,28.63
2022-11-14T06:31:00.539Z,33.63
2022-11-14T06:33:28.520Z,32.58
2022-11-14T06:36:00.203Z,32.60
2022-11-14T06:38:27.659Z,37.10
2022-11-14T06:41:05.303Z,37.80
2022-11-14T06:43:40.655Z,35.20
2022-11-14T06:46:09.589Z,30.60
2022-11-14T06:48:36.462Z,33.88
2022-11-14T06:51:05.014Z,34.90
2022-11-14T06:53:33.957Z,37.33
2022-11-14T06:56:03.541Z,36.25
2022-11-14T06:58:32.644Z,36.30
2022-11-14T07:01:26.880Z,38.35
2022-11-14T07:03:53.864Z,36.88
2022-11-14T07:06:24.578Z,34.53
2022-11-14T07:11:25.315Z,39.67
2022-11-14T07:14:03.117Z,39.72
2022-11-14T07:16:32.759Z,37.53
2022-11-14T07:18:59.669Z,39.45
2022-11-14T07:21:28.529Z,41.00
2022-11-14T07:23:56.542Z,37.35
2022-11-14T07:26:23.757Z,38.78
2022-11-14T07:28:52.992Z,43.63
2022-11-14T07:31:22.549Z,41.97
2022-11-14T07:33:49.240Z,36.05
2022-11-14T07:36:17.070Z,39.78
2022-11-14T07:38:44.268Z,40.30
2022-11-14T07:41:16.057Z,40.33
2022-11-14T07:43:43.293Z,40.70
2022-11-14T07:46:18.443Z,39.53
2022-11-14T07:48:45.509Z,40.63
2022-11-14T07:51:17.391Z,39.40
2022-11-14T07:53:44.573Z,39.45
2022-11-14T07:56:11.409Z,43.47
2022-11-14T07:58:40.161Z,40.97
2022-11-14T08:01:08.368Z,41.22
2022-11-14T08:03:35.391Z,40.38
2022-11-14T08:06:03.841Z,40.28
2022-11-14T08:08:31.054Z,45.50
2022-11-14T08:10:58.963Z,38.65
2022-11-14T08:13:32.010Z,40.88
2022-11-14T08:16:04.100Z,40.33
2022-11-14T08:18:33.340Z,36.90
2022-11-14T08:21:03.249Z,40.88
2022-11-14T08:23:29.912Z,39.63
2022-11-14T08:25:58.815Z,41.38
2022-11-14T08:28:25.349Z,39.92
2022-11-14T08:30:51.820Z,36.63
2022-11-14T08:33:18.360Z,36.42
2022-11-14T08:35:44.983Z,39.92
2022-11-14T08:38:11.595Z,43.58
2022-11-14T08:40:39.956Z,37.00
2022-11-14T08:43:06.504Z,40.55
2022-11-14T08:45:33.058Z,38.25
2022-11-14T08:47:59.627Z,36.85
2022-11-14T08:50:26.235Z,36.17
2022-11-14T08:52:53.173Z,41.75
2022-11-14T08:55:20.977Z,39.95
2022-11-14T08:57:49.703Z,39.75
2022-11-14T09:00:17.490Z,35.38
2022-11-14T09:02:44.121Z,41.42
2022-11-14T09:05:11.170Z,38.60
2022-11-14T09:07:37.761Z,39.00
2022-11-14T09:10:05.459Z,34.83
2022-11-14T09:12:32.005Z,37.90
2022-11-14T09:14:58.528Z,37.40
2022-11-14T09:17:25.196Z,32.08
2022-11-14T09:19:51.815Z,34.38
2022-11-14T09:22:18.593Z,35.67
2022-11-14T09:24:47.488Z,35.60
2022-11-14T09:40:55.221Z,26.88
2022-11-14T09:43:27.822Z,28.60
2022-11-14T09:45:55.014Z,25.20
2022-11-14T09:48:27.711Z,26.20
2022-11-14T09:51:24.009Z,26.52
2022-11-14T09:53:55.796Z,27.02
2022-11-14T09:56:25.645Z,22.95
2022-11-14T09:58:55.052Z,28.30
2022-11-14T10:01:59.996Z,26.33
2022-11-14T10:04:54.360Z,25.23
2022-11-14T10:07:26.744Z,29.00
2022-11-14T10:10:14.750Z,25.08
2022-11-14T10:13:17.609Z,24.38
2022-11-14T10:15:54.141Z,24.92
2022-11-14T10:18:52.827Z,23.85
2022-11-14T10:21:46.778Z,23.83
2022-11-14T10:24:45.601Z,24.42
2022-11-14T10:27:23.982Z,22.08
2022-11-14T10:30:18.974Z,21.00
2022-11-14T10:32:45.559Z,21.05
2022-11-14T10:35:20.102Z,21.10
2022-11-14T10:38:08.009Z,19.92
2022-11-14T10:40:40.933Z,19.42
2022-11-14T10:43:15.795Z,22.95
2022-11-14T10:45:50.204Z,20.80
2022-11-14T10:48:28.948Z,22.08
2022-11-14T10:50:57.566Z,20.70
2022-11-14T10:53:33.496Z,21.90
2022-11-14T10:56:04.788Z,20.38
2022-11-14T10:58:42.046Z,22.92
2022-11-14T11:01:37.421Z,21.48
2022-11-14T11:04:36.884Z,20.10
2022-11-14T11:07:09.160Z,18.40
2022-11-14T11:09:59.094Z,19.55
2022-11-14T11:12:43.687Z,21.40
2022-11-14T11:15:18.971Z,18.30
2022-11-14T11:18:01.321Z,19.73
2022-11-14T11:20:27.967Z,20.02
2022-11-14T11:23:11.000Z,21.38
2022-11-14T11:25:40.205Z,19.08
2022-11-14T11:28:18.502Z,19.52
2022-11-14T11:31:02.848Z,19.17
2022-11-14T11:33:35.175Z,19.15
2022-11-14T11:36:07.059Z,19.45
2022-11-14T11:38:34.574Z,20.65
2022-11-14T11:44:15.427Z,17.58
2022-11-14T11:46:44.645Z,17.63
2022-11-14T11:49:23.628Z,17.65
2022-11-14T11:51:55.123Z,18.60
2022-11-14T11:54:28.972Z,17.23
2022-11-14T11:57:00.440Z,17.27
2022-11-14T11:59:46.858Z,14.50
2022-11-14T12:02:23.729Z,15.02
2022-11-14T12:04:51.914Z,17.27
2022-11-14T12:07:46.503Z,17.55
2022-11-14T12:10:22.752Z,15.80
2022-11-14T12:13:21.872Z,17.65
2022-11-14T12:16:20.826Z,15.25
2022-11-14T12:19:10.077Z,12.43
2022-11-14T12:22:01.758Z,13.05
2022-11-14T12:25:16.514Z,13.18
2022-11-14T12:27:46.060Z,16.77
2022-11-14T12:30:18.640Z,12.10
2022-11-14T12:32:53.500Z,13.18
2022-11-14T12:35:32.934Z,13.85
2022-11-14T12:38:02.884Z,14.10
2022-11-14T12:40:40.978Z,11.38
2022-11-14T12:43:25.656Z,11.98
2022-11-14T12:45:52.103Z,13.85
2022-11-14T12:48:33.475Z,10.98
2022-11-14T12:51:00.776Z,12.45
2022-11-14T12:53:36.036Z,10.73
2022-11-14T12:56:41.478Z,11.20
2022-11-14T12:59:23.248Z,9.20
2022-11-14T13:01:52.746Z,10.68
2022-11-14T13:04:36.559Z,11.98
2022-11-14T13:07:34.139Z,10.38
2022-11-14T13:10:10.041Z,11.40
2022-11-14T13:12:55.624Z,12.52
2022-11-14T13:15:50.474Z,8.65
2022-11-14T13:18:45.275Z,8.93
2022-11-14T13:21:46.477Z,9.52
2022-11-14T13:24:19.184Z,10.27
2022-11-14T13:26:48.762Z,10.07
2022-11-14T13:29:41.386Z,11.38
2022-11-14T13:32:11.553Z,12.40
2022-11-14T13:34:44.388Z,11.23
2022-11-14T13:37:35.485Z,10.30
2022-11-14T13:40:13.710Z,9.98
2022-11-14T13:42:40.198Z,10.57
2022-11-14T13:45:40.755Z,12.13
2022-11-14T13:48:46.200Z,9.20
2022-11-14T13:51:41.660Z,9.27
2022-11-14T13:54:17.166Z,11.40
2022-11-14T13:57:26.267Z,9.07
2022-11-14T13:59:58.578Z,10.85
2022-11-14T14:02:41.993Z,10.13
2022-11-14T14:05:34.887Z,9.70
2022-11-14T14:08:10.668Z,9.18
2022-11-14T14:10:58.598Z,11.75
2022-11-14T14:13:43.479Z,8.65
2022-11-14T14:16:44.919Z,10.65
2022-11-14T14:19:34.398Z,9.98
2022-11-14T14:22:30.257Z,8.20
2022-11-14T14:25:19.453Z,10.65
2022-11-14T14:28:06.449Z,10.55
2022-11-14T14:30:33.245Z,10.95
2022-11-14T14:33:17.802Z,7.85
2022-11-14T14:35:52.643Z,12.57
2022-11-14T14:38:29.171Z,9.98
2022-11-14T14:40:56.910Z,9.75
2022-11-14T14:43:34.809Z,8.90
2022-11-14T14:46:02.058Z,8.00
2022-11-14T14:48:33.599Z,9.95
2022-11-14T14:51:03.143Z,9.32
2022-11-14T14:53:31.970Z,7.72
2022-11-14T14:56:07.314Z,9.82
2022-11-14T14:58:35.752Z,8.82
2022-11-14T15:01:11.076Z,7.65
2022-11-14T15:03:40.593Z,7.28
2022-11-14T15:06:30.646Z,8.95
2022-11-14T15:09:03.337Z,6.80
2022-11-14T15:11:32.764Z,7.25
2022-11-14T15:14:01.682Z,10.35
2022-11-14T15:16:29.419Z,7.70
2022-11-14T15:18:57.994Z,8.15
2022-11-14T15:21:29.652Z,7.00
2022-11-14T15:24:17.387Z,6.72
2022-11-14T15:26:52.179Z,7.90
2022-11-14T15:29:21.160Z,6.15
2022-11-14T15:31:59.618Z,7.60
2022-11-14T15:34:34.779Z,8.02
2022-11-14T15:37:10.289Z,6.65
2022-11-14T15:39:37.918Z,5.47
2022-11-14T15:42:16.939Z,5.82
2022-11-14T15:44:44.066Z,6.80
2022-11-14T15:47:18.371Z,5.95
2022-11-14T15:49:57.397Z,6.30
2022-11-14T15:52:48.750Z,8.45
2022-11-14T15:55:20.973Z,6.10
2022-11-14T15:57:52.022Z,5.72
2022-11-14T16:00:33.510Z,5.80
2022-11-14T16:03:00.061Z,7.03
2022-11-14T16:05:29.704Z,6.38
2022-11-14T16:07:56.737Z,6.05
2022-11-14T16:10:25.815Z,8.00
2022-11-14T16:12:52.942Z,7.80
2022-11-14T16:15:20.787Z,8.15
2022-11-14T16:17:49.584Z,7.95
2022-11-14T16:20:22.071Z,8.82
2022-11-14T16:22:49.686Z,8.02
2022-11-14T16:25:27.395Z,7.95
2022-11-14T16:27:54.425Z,8.63
2022-11-14T16:30:23.631Z,9.85
2022-11-14T16:32:51.921Z,8.23
2022-11-14T16:35:21.308Z,8.30
2022-11-14T16:37:48.318Z,9.57
2022-11-14T16:40:19.497Z,10.23
2022-11-14T16:42:46.574Z,8.50
2022-11-14T16:45:13.394Z,10.13
2022-11-14T16:47:40.598Z,8.73
2022-11-14T16:50:07.484Z,12.80
2022-11-14T16:52:34.289Z,11.27
2022-11-14T16:55:01.090Z,11.55
2022-11-14T16:57:27.952Z,12.43
2022-11-14T16:59:54.463Z,12.73
2022-11-14T17:02:21.914Z,11.40
2022-11-14T17:04:48.641Z,9.77
2022-11-14T17:07:17.759Z,11.57
2022-11-14T17:09:48.228Z,10.85
2022-11-14T17:12:14.848Z,11.80
2022-11-14T17:14:41.565Z,11.40
2022-11-14T17:17:08.145Z,12.30
2022-11-14T17:19:34.718Z,11.68
2022-11-14T17:22:01.248Z,11.32
2022-11-14T17:24:31.361Z,10.80
2022-11-14T17:26:58.164Z,11.00
2022-11-14T17:29:24.879Z,16.58
2022-11-14T17:31:51.422Z,12.57
2022-11-14T17:34:18.012Z,11.68
2022-11-14T17:36:44.642Z,12.52
2022-11-14T17:39:11.182Z,13.85
2022-11-14T17:41:38.665Z,11.63
2022-11-14T17:44:05.354Z,11.20
2022-11-14T17:46:32.609Z,14.80
2022-11-14T17:48:59.315Z,13.30
2022-11-14T17:51:26.045Z,13.48
2022-11-14T17:53:52.779Z,12.25
2022-11-14T17:56:21.898Z,11.70
2022-11-14T17:58:52.973Z,11.75
2022-11-14T18:01:22.172Z,11.80
2022-11-14T18:03:49.194Z,12.63
2022-11-14T18:06:20.800Z,12.10
2022-11-14T18:08:48.346Z,12.35
2022-11-14T18:11:16.939Z,10.70
2022-11-14T18:13:43.614Z,13.88
2022-11-14T18:16:16.067Z,12.05
2022-11-14T18:18:44.468Z,12.23
2022-11-14T18:21:25.644Z,12.45
2022-11-14T18:23:57.424Z,14.68
2022-11-14T18:26:29.407Z,11.05
2022-11-14T18:29:01.093Z,12.27
2022-11-14T18:31:28.592Z,12.32
2022-11-14T18:33:57.565Z,12.32
2022-11-14T18:36:24.751Z,13.55
2022-11-14T18:38:51.360Z,14.98
2022-11-14T18:41:21.276Z,16.63
2022-11-14T18:43:48.675Z,14.95
2022-11-14T18:46:20.330Z,13.25
2022-11-14T18:48:48.758Z,17.90
2022-11-14T18:51:23.110Z,15.63
2022-11-14T18:53:51.461Z,14.98
2022-11-14T18:56:20.397Z,15.15
2022-11-14T18:58:47.882Z,11.82
2022-11-14T19:01:18.349Z,17.70
2022-11-14T19:03:44.871Z,13.93
2022-11-14T19:06:13.218Z,12.10
2022-11-14T19:08:40.828Z,12.35
2022-11-14T19:11:29.850Z,14.68
2022-11-14T19:14:00.682Z,14.10
2022-11-14T19:16:27.722Z,16.35
2022-11-14T19:18:58.504Z,15.43
2022-11-14T19:21:25.350Z,20.83
2022-11-14T19:23:52.074Z,14.20
2022-11-14T19:26:18.639Z,27.50
2022-11-14T19:28:45.296Z,23.00
2022-11-14T19:31:11.840Z,17.17
2022-11-14T19:33:42.453Z,15.23
2022-11-14T19:36:13.371Z,16.40
2022-11-14T19:38:40.076Z,14.60
2022-11-14T19:41:13.380Z,15.77
2022-11-14T19:43:40.474Z,16.23
2022-11-14T19:46:07.530Z,13.75
2022-11-14T19:48:35.610Z,13.00
2022-11-14T19:51:08.018Z,14.40
2022-11-14T19:53:35.692Z,14.13
2022-11-14T19:56:05.060Z,13.82
2022-11-14T19:58:32.561Z,13.27
2022-11-14T20:01:01.480Z,16.85
2022-11-14T20:03:28.662Z,14.52
2022-11-14T20:05:56.211Z,13.15
2022-11-14T20:08:22.812Z,15.52
2022-11-14T20:11:01.617Z,14.63
2022-11-14T20:13:33.126Z,15.82
2022-11-14T20:16:02.966Z,14.13
2022-11-14T20:18:29.974Z,16.60
2022-11-14T20:20:58.526Z,16.48
2022-11-14T20:23:25.143Z,21.35
2022-11-14T20:25:55.730Z,17.05
2022-11-14T20:30:48.686Z,21.05
2022-11-14T20:33:15.202Z,20.38
2022-11-14T20:35:41.955Z,19.10
2022-11-14T20:38:08.495Z,16.85
2022-11-14T20:40:35.306Z,22.95
2022-11-14T20:43:01.896Z,18.25
2022-11-14T20:45:28.631Z,20.60
2022-11-14T20:47:55.472Z,20.25
2022-11-14T20:50:22.133Z,22.38
2022-11-14T20:52:49.197Z,18.80
2022-11-14T20:55:15.925Z,19.42
2022-11-14T20:57:42.828Z,22.15
2022-11-14T21:00:10.040Z,19.10
2022-11-14T21:02:36.912Z,19.35
2022-11-14T21:05:03.523Z,20.38
2022-11-14T21:07:30.121Z,21.80
2022-11-14T21:10:15.492Z,21.15
2022-11-14T21:12:45.675Z,21.38
2022-11-14T21:15:16.278Z,20.92
2022-11-14T21:17:43.093Z,22.00
2022-11-14T21:20:10.173Z,20.92
2022-11-14T21:22:36.724Z,20.08
2022-11-14T21:25:04.036Z,18.50
2022-11-14T21:27:31.792Z,22.52
2022-11-14T21:29:58.408Z,20.48
2022-11-14T21:32:24.914Z,19.13
2022-11-14T21:34:52.071Z,24.17
2022-11-14T21:37:18.750Z,22.17
2022-11-14T21:39:46.442Z,25.75
2022-11-14T21:42:18.066Z,20.25
2022-11-14T21:44:45.108Z,22.58
2022-11-14T21:47:11.619Z,21.17
2022-11-14T21:49:38.202Z,21.75
2022-11-14T21:52:04.780Z,23.23
2022-11-14T21:54:31.378Z,21.05
2022-11-14T21:56:58.013Z,23.05
2022-11-14T21:59:27.546Z,21.00
2022-11-14T22:02:12.886Z,24.50
2022-11-14T22:04:39.482Z,21.90
2022-11-14T22:07:07.455Z,21.27
2022-11-14T22:09:34.801Z,22.35
2022-11-14T22:12:01.866Z,22.10
2022-11-14T22:14:29.497Z,26.33
2022-11-14T22:17:05.319Z,20.75
2022-11-14T22:19:37.781Z,19.98
2022-11-14T22:22:04.317Z,21.45
2022-11-14T22:24:30.950Z,28.80
2022-11-14T22:26:57.485Z,23.75
2022-11-14T22:29:24.059Z,19.33
2022-11-14T22:31:53.009Z,22.48
2022-11-14T22:34:19.741Z,19.50
2022-11-14T22:36:46.440Z,22.23
2022-11-14T22:39:13.097Z,24.15
2022-11-14T22:41:39.648Z,20.05
2022-11-14T22:44:06.387Z,19.15
2022-11-14T22:46:32.946Z,20.92
2022-11-14T22:48:59.546Z,20.02
2022-11-14T22:51:27.238Z,19.25
2022-11-14T22:53:56.183Z,21.60
2022-11-14T22:56:24.992Z,25.02
2022-11-14T22:58:51.854Z,22.17
2022-11-14T23:01:24.903Z,24.40
2022-11-14T23:03:57.415Z,21.10
2022-11-14T23:06:24.977Z,20.85
2022-11-14T23:08:52.604Z,20.63
2022-11-14T23:11:25.408Z,20.08
2022-11-14T23:13:53.942Z,20.38
2022-11-14T23:16:33.109Z,18.73
2022-11-14T23:19:02.458Z,20.17
2022-11-14T23:21:32.085Z,18.52
2022-11-14T23:24:05.711Z,16.73
2022-11-14T23:26:33.058Z,23.92
2022-11-14T23:28:59.733Z,18.08
2022-11-14T23:31:26.998Z,19.45
2022-11-14T23:33:55.377Z,17.27
2022-11-14T23:36:22.224Z,19.15
2022-11-14T23:38:48.934Z,21.10
2022-11-14T23:41:17.988Z,21.65
2022-11-14T23:43:45.161Z,22.75
2022-11-14T23:46:11.749Z,19.98
2022-11-14T23:48:38.325Z,20.30
2022-11-14T23:51:04.944Z,23.13
2022-11-14T23:53:31.827Z,26.05
2022-11-14T23:56:00.987Z,22.00
2022-11-14T23:58:29.228Z,20.48
